Balcidere, Turkey

05:41 PM +03 on oktober 22, 2018 (GMT +0300)
Cardak Air Base | | Change Station

Viš 2785 ft 37.78 °N, 29.70 °E | Updated 51 minutes ago

Delno oblacno
Delno oblacno
70 °F
Feels Like 70 °F
N
7
Veter Spremenljivo Veter od ZSZ

Danes
High -- | Low -- °F
--% Chance of Precip.
Yesterday
High -- | Low -- °F
Precip. -- v
Zračni tlak 30.01 v
Vidljivost 6.2 milje
Oblaki Razprseni oblaki 3500 ft
Pretezno oblacno 10000 ft
Rosišče 45 °F
Vlažnost 40%
Padavine 0.00 v
Snow Depth Not available.
7:17 AM 6:17 PM
Naraščajoča luna, 95% visible
METAR LTAY 221350Z 29006KT 260V340 9999 SCT035 BKN100 21/07 Q1016
Zračni tlak 30.01 v
Vidljivost 6.2 milje
Oblaki Razprseni oblaki 3500 ft
Pretezno oblacno 10000 ft
Rosišče 45 °F
Vlažnost 40%
Padavine 0.00 v
Snow Depth Not available.
7:17 AM 6:17 PM
Naraščajoča luna, 95% visible
METAR LTAY 221350Z 29006KT 260V340 9999 SCT035 BKN100 21/07 Q1016

Get Severe Weather Alerts

Thanks for signing up!

Be on the lookout for a verification email in your inbox.

You'll start receiving the daily forecast at 6 AM.

×

10-Day Weather Forecast

×

Almanac

Astronomija

Oct. 22, 2018 Rise Set
Actual Time
Civil Twilight
Nautical Twilight
Astronomical Twilight
Moon
Length Of Visible Light
Dolžina dneva
Tomorrow will be .
, % of the Moon is Illuminated

Današnji ekstremi

Country Highs Country Lows

Community

WunderPhotos

Category 6

Welcome to Category 6. This is the collective home for Weather Underground's featured writeups by Dr. Jeff Masters (right), Bob Henson (left), Chris Burt, and other regular contributors.

Nearby

Air Quality

  Air Quality AQ Index Pollutant
Not available.

Snow Depth

Station Depth Višina

Earthquake Activity

City Distance Mag. Time & Date
Minimum magnitude displayed is 2.5.

Coastal Water Temperatures

Mesto Temperatura

Stations

Nearby Weather Stations

Station Location Temp Občutek zaradi vetra Rosišče Vlažnost Veter Precip. Viš Obnovljeno Type